Time;durP1;ratioP1;P1;durP2;ratioP2;P2;SDS_P1;SDS_P2;PMS_P1;PMS_P2;Temp;Humidity;BMP_temperature;BMP_pressure;BME280_temperature;BME280_humidity;BME280_pressure;Samples;Min_cycle;Max_cycle;Signal;HPM_P1;HPM_P2
2022/05/12 00:00:16;;;;;;;8.75;2.87;;;;;;;13.24;54.48;99368.89;1776681;80;21173;-76
2022/05/12 00:02:43;;;;;;;8.58;3.27;;;;;;;13.23;54.10;99370.63;1738113;82;21533;-74
2022/05/12 00:05:11;;;;;;;7.67;2.62;;;;;;;13.25;53.85;99370.53;1777292;80;21090;-77
2022/05/12 00:07:46;;;;;;;6.75;3.22;;;;;;;13.30;53.13;99364.53;1738578;82;21241;-72
2022/05/12 00:10:17;;;;;;;5.42;2.70;;;;;;;13.33;52.21;99366.04;1773839;80;21034;-75
2022/05/12 00:12:46;;;;;;;9.78;3.22;;;;;;;13.39;51.46;99375.73;1776941;80;21533;-74
2022/05/12 00:15:21;;;;;;;6.15;2.67;;;;;;;13.43;50.45;99369.50;1724993;82;21457;-77
2022/05/12 00:17:49;;;;;;;6.28;2.60;;;;;;;13.48;50.33;99368.72;1773184;80;21047;-75
2022/05/12 00:20:19;;;;;;;8.15;2.47;;;;;;;13.53;49.80;99369.09;1738751;82;21260;-76
2022/05/12 00:22:47;;;;;;;4.17;2.65;;;;;;;13.57;49.75;99370.03;1777189;80;21028;-74
2022/05/12 00:25:18;;;;;;;9.65;4.37;;;;;;;13.58;50.13;99366.70;1739698;82;21541;-76
2022/05/12 00:27:47;;;;;;;11.13;3.10;;;;;;;13.59;50.25;99368.30;1777459;80;21008;-77
2022/05/12 00:30:15;;;;;;;6.25;3.17;;;;;;;13.57;50.73;99364.50;1739294;82;21004;-76
2022/05/12 00:32:46;;;;;;;6.00;2.47;;;;;;;13.56;51.06;99369.00;1739642;82;21554;-75
2022/05/12 00:35:13;;;;;;;10.82;3.00;;;;;;;13.54;51.41;99365.76;1776926;80;21193;-77
2022/05/12 00:37:43;;;;;;;4.37;2.50;;;;;;;13.54;51.52;99368.52;1714769;82;21063;-76
2022/05/12 00:40:12;;;;;;;7.30;3.30;;;;;;;13.54;51.35;99362.42;1700766;84;21044;-76
2022/05/12 00:42:54;;;;;;;6.10;2.60;;;;;;;13.55;51.35;99366.80;1679103;85;21037;-78
2022/05/12 00:45:25;;;;;;;4.83;2.92;;;;;;;13.53;51.58;99369.09;1672935;85;21267;-77
2022/05/12 00:47:53;;;;;;;10.72;2.65;;;;;;;13.50;51.59;99362.84;1700701;84;20984;-76
2022/05/12 00:50:28;;;;;;;7.08;2.55;;;;;;;13.52;50.98;99360.57;1677150;84;21057;-77
2022/05/12 00:52:57;;;;;;;5.50;2.52;;;;;;;13.55;49.99;99368.17;1699867;84;21040;-75
2022/05/12 00:55:37;;;;;;;5.30;2.72;;;;;;;13.58;50.06;99359.78;1676631;85;21104;-79
2022/05/12 00:58:10;;;;;;;7.60;2.83;;;;;;;13.58;50.07;99361.95;1676113;85;21199;-76
2022/05/12 01:00:38;;;;;;;6.67;2.80;;;;;;;13.59;50.28;99362.20;1704205;84;21143;-77
2022/05/12 01:03:11;;;;;;;10.72;3.25;;;;;;;13.59;50.61;99363.58;1703914;83;21039;-78
2022/05/12 01:05:38;;;;;;;5.87;3.00;;;;;;;13.61;49.15;99359.08;1689434;84;21058;-78
2022/05/12 01:08:14;;;;;;;7.62;3.15;;;;;;;13.63;48.72;99358.14;1698857;84;21052;-75
2022/05/12 01:10:47;;;;;;;8.38;3.25;;;;;;;13.65;49.28;99350.91;1677088;85;21258;-74
2022/05/12 01:13:15;;;;;;;5.62;2.47;;;;;;;13.66;48.91;99347.78;1675497;85;21510;-76
2022/05/12 01:15:57;;;;;;;5.22;2.77;;;;;;;13.68;48.74;99343.28;1702797;84;21036;-78
2022/05/12 01:18:30;;;;;;;6.05;3.00;;;;;;;13.70;49.26;99345.92;1702446;83;21079;-76
2022/05/12 01:20:57;;;;;;;5.55;2.60;;;;;;;13.67;49.25;99352.72;1671699;85;21036;-77
2022/05/12 01:23:36;;;;;;;6.45;2.87;;;;;;;13.63;50.48;99349.27;1688897;83;21883;-76
2022/05/12 01:26:09;;;;;;;8.28;2.75;;;;;;;13.60;49.81;99350.53;1674652;85;21116;-76
2022/05/12 01:28:39;;;;;;;4.42;2.50;;;;;;;13.56;49.95;99347.64;1677084;85;21014;-75
2022/05/12 01:31:06;;;;;;;7.33;2.77;;;;;;;13.52;50.55;99341.19;1688654;84;21111;-77
2022/05/12 01:33:35;;;;;;;6.20;2.65;;;;;;;13.49;51.01;99341.26;1692999;84;20985;-76
2022/05/12 01:36:07;;;;;;;6.03;2.72;;;;;;;13.46;51.47;99339.19;1673735;85;21059;-75
2022/05/12 01:38:35;;;;;;;4.35;2.52;;;;;;;13.46;51.98;99343.34;1689561;83;21032;-75
2022/05/12 01:41:01;;;;;;;7.53;3.02;;;;;;;13.46;51.99;99335.63;1699309;84;21056;-78
2022/05/12 01:43:30;;;;;;;4.28;2.55;;;;;;;13.47;51.54;99348.30;1700270;83;21031;-76
2022/05/12 01:46:00;;;;;;;5.12;2.67;;;;;;;13.49;51.03;99344.03;1729885;82;20996;-77
2022/05/12 01:48:27;;;;;;;6.47;2.58;;;;;;;13.53;50.78;99342.80;1739859;82;21128;-76
2022/05/12 01:50:55;;;;;;;8.50;2.75;;;;;;;13.55;49.91;99341.06;1735846;82;21026;-75
2022/05/12 01:53:25;;;;;;;4.33;2.33;;;;;;;13.57;49.77;99342.35;1706291;83;20989;-73
2022/05/12 01:55:55;;;;;;;14.78;3.20;;;;;;;13.58;49.72;99332.88;1707867;83;21604;-77
2022/05/12 01:58:23;;;;;;;9.03;2.37;;;;;;;13.60;50.01;99335.30;1731136;82;21051;-77
2022/05/12 02:00:52;;;;;;;10.43;2.90;;;;;;;13.60;49.83;99333.92;1741516;82;21337;-77
2022/05/12 02:03:21;;;;;;;6.58;2.67;;;;;;;13.54;49.87;99333.92;1736990;82;21029;-73
2022/05/12 02:05:47;;;;;;;8.13;2.52;;;;;;;13.45;50.02;99332.05;1775610;80;21019;-75
2022/05/12 02:08:15;;;;;;;5.95;2.42;;;;;;;13.43;50.45;99333.53;1723599;82;20988;-76
2022/05/12 02:10:49;;;;;;;9.55;3.77;;;;;;;13.40;50.94;99332.27;1724727;82;21541;-74
2022/05/12 02:13:25;;;;;;;6.30;3.08;;;;;;;13.35;51.31;99332.49;1737431;82;22105;-77
2022/05/12 02:15:53;;;;;;;4.90;2.30;;;;;;;13.32;51.77;99327.65;1775649;80;21119;-77
2022/05/12 02:18:22;;;;;;;4.42;2.30;;;;;;;13.32;51.85;99332.62;1776939;80;21020;-77
2022/05/12 02:20:49;;;;;;;5.25;2.42;;;;;;;13.29;52.09;99323.59;1740320;82;20987;-76
2022/05/12 02:23:16;;;;;;;6.58;2.60;;;;;;;13.28;52.13;99333.06;1707116;83;21056;-77
2022/05/12 02:25:45;;;;;;;8.35;2.72;;;;;;;13.27;51.83;99327.30;1721621;83;21139;-77
2022/05/12 02:28:17;;;;;;;4.83;2.20;;;;;;;13.27;51.58;99328.69;1723777;82;21603;-77
2022/05/12 02:30:46;;;;;;;6.40;2.60;;;;;;;13.26;51.86;99332.02;1719495;83;20981;-75
2022/05/12 02:33:13;;;;;;;5.62;2.27;;;;;;;13.28;51.96;99337.20;1740095;82;21498;-75
2022/05/12 02:35:40;;;;;;;13.15;2.50;;;;;;;13.30;52.12;99339.06;1719425;82;21043;-77
2022/05/12 02:38:12;;;;;;;3.27;1.87;;;;;;;13.33;51.79;99339.75;1724275;82;21008;-77
2022/05/12 02:40:45;;;;;;;4.83;2.47;;;;;;;13.36;51.90;99336.86;1739348;82;21053;-79
2022/05/12 02:43:24;;;;;;;4.65;2.35;;;;;;;13.35;52.07;99341.61;1732774;82;21540;-78
2022/05/12 02:45:56;;;;;;;5.03;2.40;;;;;;;13.35;52.39;99334.69;1730890;82;21001;-77
2022/05/12 02:48:27;;;;;;;5.37;2.17;;;;;;;13.37;52.27;99331.58;1729360;82;21000;-77
2022/05/12 02:50:55;;;;;;;7.60;2.12;;;;;;;13.39;51.94;99331.45;1723630;81;21852;-78
2022/05/12 02:53:23;;;;;;;4.58;2.33;;;;;;;13.41;52.55;99334.47;1734878;82;21037;-78
2022/05/12 02:55:50;;;;;;;5.42;2.08;;;;;;;13.37;52.42;99335.13;1736943;82;21107;-77
2022/05/12 02:58:19;;;;;;;4.42;2.00;;;;;;;13.34;52.41;99333.66;1737854;82;21016;-78
2022/05/12 03:00:50;;;;;;;5.53;2.45;;;;;;;13.29;53.08;99336.05;1737455;82;21088;-79
2022/05/12 03:03:21;;;;;;;7.50;2.08;;;;;;;13.28;54.04;99341.36;1737507;82;21083;-77
2022/05/12 03:05:51;;;;;;;4.13;2.37;;;;;;;13.25;53.54;99339.28;1732957;82;21056;-78
2022/05/12 03:08:21;;;;;;;4.53;1.80;;;;;;;13.23;52.92;99336.86;1740019;82;21055;-76
2022/05/12 03:10:51;;;;;;;5.40;2.02;;;;;;;13.26;53.46;99340.89;1751760;81;21496;-77
2022/05/12 03:13:20;;;;;;;8.43;2.08;;;;;;;13.31;53.10;99338.47;1738108;82;21515;-78
2022/05/12 03:15:51;;;;;;;10.35;2.37;;;;;;;13.36;52.29;99335.48;1738214;82;21070;-79
2022/05/12 03:18:19;;;;;;;6.47;2.58;;;;;;;13.42;51.57;99339.66;1730479;80;20976;-78
2022/05/12 03:20:46;;;;;;;3.35;1.72;;;;;;;13.49;50.28;99340.47;1781771;80;21043;-78
2022/05/12 03:23:13;;;;;;;6.50;2.75;;;;;;;13.54;49.70;99341.66;1778884;80;21062;-78
2022/05/12 03:25:43;;;;;;;10.95;2.27;;;;;;;13.59;49.22;99343.39;1734334;82;21088;-79
2022/05/12 03:28:11;;;;;;;8.00;2.45;;;;;;;13.66;49.38;99341.43;1777366;80;21474;-78
2022/05/12 03:30:38;;;;;;;12.60;2.75;;;;;;;13.69;49.50;99333.25;1740045;82;21632;-77
2022/05/12 03:33:05;;;;;;;3.65;2.17;;;;;;;13.75;49.67;99337.95;1777239;80;21035;-78
2022/05/12 03:35:33;;;;;;;3.12;1.50;;;;;;;13.79;50.54;99340.28;1737675;82;21056;-75
2022/05/12 03:38:04;;;;;;;9.43;2.45;;;;;;;13.81;50.99;99331.05;1777417;80;21071;-78
2022/05/12 03:40:31;;;;;;;8.25;2.30;;;;;;;13.84;50.42;99328.97;1739992;82;21864;-79
2022/05/12 03:43:02;;;;;;;5.10;2.12;;;;;;;13.89;49.32;99331.29;1758445;80;21497;-77
2022/05/12 03:45:29;;;;;;;9.13;2.67;;;;;;;13.92;48.59;99336.91;1740075;82;21078;-74
2022/05/12 03:47:56;;;;;;;7.03;2.70;;;;;;;13.97;47.84;99330.36;1708306;83;21021;-75
2022/05/12 03:50:25;;;;;;;11.70;3.02;;;;;;;14.02;47.27;99330.13;1708389;83;21084;-77
2022/05/12 03:52:54;;;;;;;6.97;2.70;;;;;;;14.06;47.07;99329.64;1707860;83;21209;-76
2022/05/12 03:55:24;;;;;;;10.53;3.00;;;;;;;14.11;46.58;99332.17;1707703;83;21006;-78
2022/05/12 03:57:53;;;;;;;4.03;2.45;;;;;;;14.16;46.35;99327.56;1712959;83;21013;-77
2022/05/12 04:00:24;;;;;;;6.08;3.22;;;;;;;14.21;46.12;99328.70;1776752;80;20992;-78
2022/05/12 04:02:54;;;;;;;10.43;5.33;;;;;;;14.23;45.83;99327.19;1777540;80;21012;-76
2022/05/12 04:05:20;;;;;;;7.35;3.37;;;;;;;14.28;45.58;99330.28;1777240;80;21536;-77
2022/05/12 04:07:54;;;;;;;8.45;3.05;;;;;;;14.31;45.52;99328.80;1755395;80;21036;-77
2022/05/12 04:10:23;;;;;;;6.65;2.87;;;;;;;14.35;45.39;99329.69;1776743;80;21012;-78
2022/05/12 04:12:52;;;;;;;8.15;3.00;;;;;;;14.38;45.31;99329.58;1777173;80;21044;-77
2022/05/12 04:15:26;;;;;;;4.30;2.77;;;;;;;14.41;45.23;99336.63;1777106;80;21078;-78
2022/05/12 04:18:01;;;;;;;5.28;2.67;;;;;;;14.45;45.03;99336.73;1777201;80;21048;-79
2022/05/12 04:20:33;;;;;;;11.33;2.92;;;;;;;14.49;45.01;99329.31;1772939;80;21048;-78
2022/05/12 04:23:02;;;;;;;7.22;2.77;;;;;;;14.51;44.63;99336.70;1777932;80;21118;-78
2022/05/12 04:25:31;;;;;;;6.00;2.65;;;;;;;14.54;44.69;99328.25;1755681;80;20978;-78
2022/05/12 04:28:00;;;;;;;9.13;2.83;;;;;;;14.55;44.86;99335.42;1777391;80;21075;-78
2022/05/12 04:30:28;;;;;;;9.78;2.45;;;;;;;14.54;44.54;99331.84;1751523;80;21745;-76
2022/05/12 04:32:55;;;;;;;7.47;2.70;;;;;;;14.56;44.76;99334.25;1739530;82;21541;-78
2022/05/12 04:35:26;;;;;;;5.10;2.30;;;;;;;14.56;44.92;99325.37;1707625;82;21529;-75
2022/05/12 04:37:58;;;;;;;6.22;2.62;;;;;;;14.58;45.06;99330.56;1704847;83;21002;-78
2022/05/12 04:40:29;;;;;;;8.60;2.77;;;;;;;14.62;45.26;99329.28;1774813;80;21086;-74
2022/05/12 04:43:00;;;;;;;7.62;3.17;;;;;;;14.70;45.86;99335.25;1737886;82;21039;-77
2022/05/12 04:45:29;;;;;;;7.87;2.47;;;;;;;14.82;45.49;99335.21;1776517;80;20993;-70
2022/05/12 04:47:58;;;;;;;4.85;2.35;;;;;;;14.97;45.27;99332.84;1724604;82;21094;-79
2022/05/12 04:50:34;;;;;;;5.50;2.45;;;;;;;15.14;44.62;99327.55;1777419;80;21028;-77
2022/05/12 04:53:01;;;;;;;6.85;2.50;;;;;;;15.31;44.62;99329.75;1739201;82;21501;-79
2022/05/12 04:55:28;;;;;;;8.58;2.67;;;;;;;15.44;44.63;99331.28;1777291;80;21056;-78
2022/05/12 04:57:57;;;;;;;6.28;2.40;;;;;;;15.58;44.47;99326.67;1739771;82;21026;-78
2022/05/12 05:00:26;;;;;;;5.08;2.20;;;;;;;15.74;43.73;99329.22;1777337;80;21126;-77
2022/05/12 05:02:55;;;;;;;9.13;2.52;;;;;;;15.89;43.63;99331.74;1777663;80;21544;-76
2022/05/12 05:05:23;;;;;;;6.00;3.27;;;;;;;16.03;43.58;99334.90;1739607;82;21052;-78
2022/05/12 05:07:52;;;;;;;10.43;2.25;;;;;;;16.20;43.20;99325.12;1752141;80;20988;-78
2022/05/12 05:10:21;;;;;;;5.90;2.50;;;;;;;16.35;42.37;99320.67;1777297;80;21031;-75
2022/05/12 05:12:49;;;;;;;5.62;2.70;;;;;;;16.47;42.29;99323.32;1739937;82;21732;-77
2022/05/12 05:15:17;;;;;;;6.70;2.25;;;;;;;16.62;42.33;99319.43;1775892;80;21051;-78
2022/05/12 05:17:46;;;;;;;9.10;3.17;;;;;;;16.77;42.26;99315.77;1739750;82;21049;-77
2022/05/12 05:20:23;;;;;;;11.43;3.58;;;;;;;16.94;40.63;99310.13;1777236;80;22286;-76
2022/05/12 05:22:52;;;;;;;5.92;2.25;;;;;;;17.11;41.27;99313.05;1773521;80;21035;-77
2022/05/12 05:25:20;;;;;;;6.05;2.42;;;;;;;17.26;40.68;99314.89;1755755;80;21091;-79
2022/05/12 05:27:47;;;;;;;8.30;2.05;;;;;;;17.39;39.61;99312.75;1736433;82;21005;-78
2022/05/12 05:30:20;;;;;;;10.68;2.75;;;;;;;17.54;39.64;99305.22;1705784;82;21036;-75
2022/05/12 05:32:48;;;;;;;7.40;2.35;;;;;;;17.66;39.30;99307.79;1719922;83;21099;-79
2022/05/12 05:35:17;;;;;;;3.80;1.92;;;;;;;17.81;39.29;99299.67;1707342;83;21045;-79
2022/05/12 05:37:45;;;;;;;6.35;2.33;;;;;;;17.95;38.79;99308.23;1740591;82;21626;-79
2022/05/12 05:40:19;;;;;;;5.97;2.50;;;;;;;18.11;38.18;99295.52;1728122;82;21042;-80
2022/05/12 05:42:48;;;;;;;6.40;2.05;;;;;;;18.28;38.00;99291.17;1727770;82;21023;-80
2022/05/12 05:45:17;;;;;;;7.85;2.60;;;;;;;18.45;37.39;99289.21;1686065;84;21072;-78
2022/05/12 05:47:51;;;;;;;13.05;2.40;;;;;;;18.66;37.47;99283.68;1742548;81;21063;-78
2022/05/12 05:50:25;;;;;;;8.65;2.42;;;;;;;18.87;37.76;99282.28;1733379;81;21599;-75
2022/05/12 05:55:43;;;;;;;3.52;2.10;;;;;;;19.23;36.35;99277.67;1738619;82;21040;-79
2022/05/12 05:58:11;;;;;;;9.30;2.55;;;;;;;19.29;36.00;99269.75;1741439;82;21271;-79
2022/05/12 06:00:39;;;;;;;7.25;2.67;;;;;;;19.27;35.70;99265.14;1725833;82;21039;-79
2022/05/12 06:03:06;;;;;;;6.67;2.42;;;;;;;19.23;36.11;99262.92;1743417;82;21521;-77
2022/05/12 06:05:33;;;;;;;9.48;2.85;;;;;;;19.21;35.84;99266.89;1743367;81;21075;-79
2022/05/12 06:08:05;;;;;;;11.25;2.50;;;;;;;19.31;36.24;99261.80;1741753;82;21024;-80
2022/05/12 06:10:31;;;;;;;10.75;2.70;;;;;;;19.44;36.98;99258.09;1741124;81;21218;-80
2022/05/12 06:12:58;;;;;;;8.95;3.12;;;;;;;19.61;36.87;99258.61;1709023;82;21499;-79
2022/05/12 06:15:27;;;;;;;5.83;2.37;;;;;;;19.76;36.79;99253.33;1740858;82;20992;-76
2022/05/12 06:17:54;;;;;;;7.87;2.65;;;;;;;19.92;36.28;99257.23;1737989;82;21474;-78
2022/05/12 06:20:21;;;;;;;11.55;2.50;;;;;;;20.04;35.93;99247.73;1742168;82;20988;-75
2022/05/12 06:22:49;;;;;;;11.15;2.25;;;;;;;20.21;36.75;99247.39;1733927;81;20998;-76
2022/05/12 06:25:17;;;;;;;10.10;2.72;;;;;;;20.35;36.36;99239.05;1737906;82;21012;-78
2022/05/12 06:27:44;;;;;;;10.60;2.42;;;;;;;20.50;35.80;99234.91;1743032;81;20972;-76
2022/05/12 06:30:11;;;;;;;7.78;2.62;;;;;;;20.64;35.08;99230.73;1742400;80;21055;-78
2022/05/12 06:32:41;;;;;;;13.38;3.05;;;;;;;20.76;34.77;99227.39;1742037;81;21013;-77
2022/05/12 06:35:09;;;;;;;7.65;2.75;;;;;;;20.88;35.46;99221.38;1742370;81;21105;-79
2022/05/12 06:37:37;;;;;;;32.98;4.55;;;;;;;21.02;35.25;99220.63;1737675;82;21000;-79
2022/05/12 06:40:08;;;;;;;6.33;2.20;;;;;;;21.16;35.90;99223.23;1702950;82;21039;-78
2022/05/12 06:42:36;;;;;;;12.05;2.58;;;;;;;21.33;35.89;99226.42;1774839;80;21059;-80
2022/05/12 06:45:07;;;;;;;11.30;2.60;;;;;;;21.50;35.79;99220.02;1739648;82;21053;-79
2022/05/12 06:47:35;;;;;;;5.95;2.75;;;;;;;21.68;35.13;99216.39;1777451;80;21210;-76
2022/05/12 06:50:03;;;;;;;9.33;2.90;;;;;;;21.80;35.39;99214.38;1725886;82;20976;-79
2022/05/12 06:52:36;;;;;;;6.03;2.90;;;;;;;21.87;34.66;99215.14;1777807;80;20996;-78
2022/05/12 06:55:06;;;;;;;8.93;2.95;;;;;;;21.98;34.73;99211.51;1738587;82;21501;-76
2022/05/12 06:57:36;;;;;;;14.25;2.80;;;;;;;22.00;34.52;99208.52;1777602;80;21031;-77
2022/05/12 07:00:10;;;;;;;4.97;2.20;;;;;;;22.05;34.40;99212.89;1739748;82;21050;-80
2022/05/12 07:02:40;;;;;;;8.63;2.37;;;;;;;22.12;34.90;99208.67;1778276;80;20976;-78
2022/05/12 07:05:25;;;;;;;15.05;2.62;;;;;;;22.19;34.91;99215.44;1739772;82;21751;-80
2022/05/12 07:07:52;;;;;;;;;;;;;;;22.29;34.63;99208.98;1778911;80;21512;-76
2022/05/12 07:10:20;;;;;;;5.30;2.83;;;;;;;22.39;34.68;99205.92;1773229;80;20140;-80
2022/05/12 07:12:49;;;;;;;10.10;3.35;;;;;;;22.48;34.74;99206.88;1724814;82;21476;-81
2022/05/12 07:15:15;;;;;;;4.58;3.15;;;;;;;22.56;34.93;99203.42;1739950;81;21076;-80
2022/05/12 07:17:45;;;;;;;11.83;2.95;;;;;;;22.64;34.84;99205.00;1732713;82;21048;-76
2022/05/12 07:28:40;;;;;;;12.80;2.85;;;;;;;22.95;34.94;99202.38;1704568;83;21092;-78
2022/05/12 07:31:09;;;;;;;6.70;2.85;;;;;;;23.06;35.51;99205.71;1699662;84;21065;-77
2022/05/12 07:33:39;;;;;;;7.60;3.20;;;;;;;23.16;35.15;99202.02;1743700;81;21037;-76
2022/05/12 07:36:13;;;;;;;14.00;3.35;;;;;;;23.27;35.14;99204.72;1704953;82;21037;-78
2022/05/12 07:38:40;;;;;;;6.65;3.50;;;;;;;23.38;35.32;99196.80;1736244;82;21153;-78
2022/05/12 07:41:11;;;;;;;5.50;2.83;;;;;;;23.50;35.58;99204.75;1735196;82;21028;-76
2022/05/12 07:43:38;;;;;;;18.20;3.30;;;;;;;23.64;35.21;99200.19;1691779;83;21079;-77
2022/05/12 07:46:07;;;;;;;8.43;3.12;;;;;;;23.71;35.45;99195.90;1689723;83;21048;-77
2022/05/12 07:48:36;;;;;;;14.00;3.40;;;;;;;23.78;34.59;99188.77;1729204;82;21084;-79
2022/05/12 07:51:04;;;;;;;11.43;3.12;;;;;;;23.82;35.29;99192.95;1707912;83;21722;-76
2022/05/12 07:53:30;;;;;;;8.78;3.75;;;;;;;23.86;34.34;99188.70;1745846;82;21033;-77
2022/05/12 07:55:57;;;;;;;17.05;3.12;;;;;;;23.88;34.75;99187.08;1710147;83;21124;-78
2022/05/12 07:58:26;;;;;;;11.15;3.35;;;;;;;23.94;35.00;99180.36;1753513;80;20992;-75
2022/05/12 08:00:56;;;;;;;13.25;3.15;;;;;;;24.04;35.74;99176.62;1771819;79;21054;-67
2022/05/12 08:03:25;;;;;;;6.28;2.83;;;;;;;24.15;34.97;99175.08;1764601;79;21143;-78
2022/05/12 08:05:59;;;;;;;12.28;3.37;;;;;;;24.23;34.88;99173.59;1776058;79;21576;-79
2022/05/12 08:08:30;;;;;;;5.00;3.27;;;;;;;24.29;34.83;99175.50;1775747;79;21047;-75
2022/05/12 08:10:57;;;;;;;15.50;3.27;;;;;;;24.40;35.54;99157.67;1776727;79;21072;-77
2022/05/12 08:13:25;;;;;;;8.88;3.35;;;;;;;24.50;34.89;99160.94;1776764;79;21082;-78
2022/05/12 08:15:53;;;;;;;10.23;2.90;;;;;;;24.58;35.21;99158.03;1740333;80;21167;-73
2022/05/12 08:18:24;;;;;;;6.60;2.65;;;;;;;24.68;35.37;99155.66;1715163;82;21009;-75
2022/05/12 08:20:57;;;;;;;7.60;2.95;;;;;;;24.76;34.51;99157.14;1706419;82;21008;-76
2022/05/12 08:23:30;;;;;;;8.10;4.15;;;;;;;24.79;34.35;99152.66;1713911;82;21044;-77
2022/05/12 08:25:58;;;;;;;5.70;3.05;;;;;;;24.82;34.92;99150.41;1702760;82;21127;-78
2022/05/12 08:28:25;;;;;;;6.70;3.30;;;;;;;24.90;34.07;99152.49;1718604;82;21738;-77
2022/05/12 08:30:59;;;;;;;6.37;2.65;;;;;;;24.95;34.67;99156.86;1776217;79;21036;-77
2022/05/12 08:33:27;;;;;;;5.17;3.17;;;;;;;25.01;34.51;99143.90;1772522;79;21107;-79
2022/05/12 08:35:56;;;;;;;7.10;2.83;;;;;;;25.07;34.23;99144.98;1735433;81;21036;-75
2022/05/12 08:38:25;;;;;;;7.45;3.30;;;;;;;25.12;34.11;99137.45;1774046;80;21062;-77
2022/05/12 08:41:12;;;;;;;9.40;2.90;;;;;;;25.21;34.01;99140.32;1776342;79;22053;-77
2022/05/12 08:44:08;;;;;;;9.53;4.45;;;;;;;25.26;34.34;99137.81;1775157;80;21557;-77
2022/05/12 08:46:56;;;;;;;10.65;2.77;;;;;;;25.35;33.96;99137.86;1736170;82;21045;-77
2022/05/12 08:49:31;;;;;;;5.92;2.90;;;;;;;25.42;33.41;99134.88;1694160;83;21179;-73
2022/05/12 08:52:45;;;;;;;8.35;3.17;;;;;;;25.49;33.42;99138.17;1732177;82;21087;-75
2022/05/12 08:55:30;;;;;;;8.65;3.10;;;;;;;25.57;33.99;99133.21;1774618;80;21418;-75
2022/05/12 08:58:27;;;;;;;14.90;3.50;;;;;;;25.63;33.28;99128.07;1735951;82;21055;-76
2022/05/12 09:01:36;;;;;;;7.27;3.13;;;;;;;25.62;33.08;99124.25;1716177;82;21073;-79
2022/05/12 09:04:52;;;;;;;7.05;3.10;;;;;;;25.64;34.03;99121.83;1773163;80;20980;-75
2022/05/12 09:07:28;;;;;;;10.80;3.05;;;;;;;25.73;33.40;99118.40;1738225;82;21080;-75
2022/05/12 09:10:19;;;;;;;16.82;4.10;;;;;;;25.83;33.55;99113.79;1706756;83;21139;-76
2022/05/12 09:13:13;;;;;;;15.83;4.15;;;;;;;25.91;32.97;99111.59;1700915;83;21099;-74
2022/05/12 09:15:45;;;;;;;12.70;3.62;;;;;;;25.97;33.56;99128.98;1716703;83;21047;-75
2022/05/12 09:18:19;;;;;;;9.55;3.90;;;;;;;26.06;33.45;99115.70;1732372;81;21009;-76
2022/05/12 09:20:47;;;;;;;14.35;3.75;;;;;;;26.11;33.32;99105.91;1694575;83;21091;-76
2022/05/12 09:23:13;;;;;;;12.68;3.72;;;;;;;26.10;33.62;99100.10;1758201;79;21527;-75
2022/05/12 09:25:46;;;;;;;9.50;3.35;;;;;;;26.13;33.75;99107.69;1775153;79;21376;-76
2022/05/12 09:28:37;;;;;;;11.65;3.85;;;;;;;26.18;33.39;99094.47;1759722;80;21032;-76
2022/05/12 09:31:17;;;;;;;17.52;4.05;;;;;;;26.28;33.22;99086.17;1760000;80;21607;-75
2022/05/12 09:33:51;;;;;;;13.78;5.10;;;;;;;26.42;33.44;99079.43;1732721;82;21037;-79
2022/05/12 09:36:29;;;;;;;11.15;3.47;;;;;;;26.55;33.05;99078.09;1705105;84;21232;-76
2022/05/12 09:39:12;;;;;;;10.72;3.87;;;;;;;26.64;33.15;99075.47;1686342;84;21671;-77
2022/05/12 09:41:46;;;;;;;11.63;3.05;;;;;;;26.74;32.74;99067.34;1702125;82;21060;-74
2022/05/12 09:44:21;;;;;;;9.58;3.33;;;;;;;26.80;32.19;99067.58;1733576;82;21500;-75
2022/05/12 09:47:12;;;;;;;9.13;3.75;;;;;;;26.77;32.56;99063.45;1736600;81;21005;-76
2022/05/12 09:49:44;;;;;;;11.43;3.52;;;;;;;26.68;32.15;99067.67;1688436;82;21854;-75
2022/05/12 09:52:35;;;;;;;19.60;3.98;;;;;;;26.63;32.04;99053.31;1734146;81;21009;-75
2022/05/12 09:55:25;;;;;;;10.08;3.37;;;;;;;26.60;32.28;99054.98;1745674;81;20965;-71
2022/05/12 09:58:04;;;;;;;22.90;4.08;;;;;;;26.64;33.35;99045.81;1741051;80;21050;-74
2022/05/12 10:00:35;;;;;;;11.22;3.92;;;;;;;26.81;34.21;99040.13;1731922;82;21071;-76
2022/05/12 10:09:15;;;;;;;18.30;4.65;;;;;;;27.13;32.32;99032.83;1731634;81;21166;-74
2022/05/12 10:11:57;;;;;;;8.78;3.12;;;;;;;27.28;31.40;99038.88;1736416;82;21534;-76
2022/05/12 10:15:03;;;;;;;13.98;3.80;;;;;;;27.37;31.15;99033.18;1738021;81;21524;-75
2022/05/12 10:17:58;;;;;;;10.85;3.40;;;;;;;27.46;31.60;99036.16;1732305;80;21051;-71
2022/05/12 10:20:42;;;;;;;6.55;3.08;;;;;;;27.57;31.85;99039.45;1737482;80;21026;-75
2022/05/12 10:23:21;;;;;;;20.62;3.77;;;;;;;27.72;31.41;99024.13;1737156;80;21001;-77
2022/05/12 10:26:07;;;;;;;8.88;2.60;;;;;;;27.85;30.45;99030.58;1680362;82;21605;-79
2022/05/12 10:29:25;;;;;;;13.05;3.33;;;;;;;27.84;29.95;99013.45;1728365;82;21592;-76
2022/05/12 10:32:35;;;;;;;12.37;3.58;;;;;;;27.83;30.47;99016.89;1630853;86;21606;-77
2022/05/12 10:35:34;;;;;;;15.35;3.90;;;;;;;27.89;29.48;99019.16;1729876;81;21035;-76
2022/05/12 10:38:24;;;;;;;8.20;3.30;;;;;;;27.78;29.91;99018.06;1692277;84;21098;-73
2022/05/12 10:41:11;;;;;;;11.68;3.85;;;;;;;27.74;29.51;99008.27;1727497;81;21024;-75
2022/05/12 10:43:56;;;;;;;9.60;3.00;;;;;;;27.69;29.65;99006.00;1762587;80;21103;-80
2022/05/12 10:46:58;;;;;;;17.23;3.47;;;;;;;27.68;29.66;99002.37;1736115;81;21879;-75
2022/05/12 10:49:42;;;;;;;10.08;3.87;;;;;;;27.74;29.68;98994.77;1736242;81;21086;-78
2022/05/12 10:52:36;;;;;;;13.50;3.55;;;;;;;27.78;29.72;99000.48;1721055;81;20989;-80
2022/05/12 10:55:26;;;;;;;;;;;;;;;27.86;29.79;98978.39;1719829;82;21083;-79
2022/05/12 10:58:41;;;;;;;10.00;3.33;;;;;;;27.93;29.41;98981.00;1727243;82;20166;-73
2022/05/12 11:01:34;;;;;;;12.10;3.60;;;;;;;27.95;30.14;98974.27;1721773;82;21513;-77
2022/05/12 11:04:25;;;;;;;19.00;4.45;;;;;;;28.05;30.14;98965.88;1695221;82;21077;-77
2022/05/12 11:07:22;;;;;;;17.07;3.47;;;;;;;28.12;30.25;98957.15;1702386;83;21085;-79
2022/05/12 11:10:35;;;;;;;9.33;3.58;;;;;;;28.18;30.84;98948.88;1696858;83;21099;-79
2022/05/12 11:13:32;;;;;;;9.05;4.47;;;;;;;28.26;30.20;98942.34;1757962;80;21039;-80
2022/05/12 11:16:33;;;;;;;12.60;3.37;;;;;;;28.30;29.38;98952.94;1772245;80;20999;-81
2022/05/12 11:19:21;;;;;;;12.68;3.20;;;;;;;28.31;29.77;98946.02;1752949;80;21020;-75
2022/05/12 11:22:45;;;;;;;14.87;3.33;;;;;;;28.33;29.61;98939.27;1763934;79;20997;-75
2022/05/12 11:25:31;;;;;;;8.85;3.25;;;;;;;28.38;28.96;98939.34;1764224;79;20976;-79
2022/05/12 11:31:21;;;;;;;19.92;4.00;;;;;;;28.29;29.90;98925.23;1776707;79;21792;-78
2022/05/12 11:33:56;;;;;;;11.33;3.30;;;;;;;28.31;29.94;98916.28;1767094;80;21087;-74
2022/05/12 11:36:48;;;;;;;15.75;2.72;;;;;;;28.36;29.48;98924.84;1768897;80;21060;-76
2022/05/12 11:39:42;;;;;;;16.10;3.40;;;;;;;28.37;29.61;98911.64;1766201;79;21001;-77
2022/05/12 11:42:22;;;;;;;25.02;3.42;;;;;;;28.47;30.36;98908.28;1707870;82;21096;-73
2022/05/12 11:45:09;;;;;;;15.38;3.27;;;;;;;28.59;29.26;98912.31;1766991;79;21517;-77
2022/05/12 11:48:11;;;;;;;10.53;2.87;;;;;;;28.62;28.38;98907.75;1758208;79;21511;-76
2022/05/12 11:51:24;;;;;;;10.13;2.90;;;;;;;28.62;28.50;98902.89;1739081;82;20996;-78
2022/05/12 11:54:36;;;;;;;16.02;3.65;;;;;;;28.60;28.26;98896.09;1768277;79;21066;-78
2022/05/12 11:57:35;;;;;;;12.07;3.17;;;;;;;28.62;28.84;98894.39;1767432;80;21055;-79
2022/05/12 12:00:33;;;;;;;10.60;2.70;;;;;;;28.66;29.29;98879.45;1686299;82;21561;-73
2022/05/12 12:03:24;;;;;;;18.17;2.95;;;;;;;28.71;28.81;98881.54;1710652;83;21044;-81
2022/05/12 12:06:04;;;;;;;16.17;3.10;;;;;;;28.74;28.71;98881.41;1744847;80;21104;-78
2022/05/12 12:08:46;;;;;;;19.45;3.70;;;;;;;28.73;28.54;98874.80;1734697;82;21028;-77
2022/05/12 12:11:31;;;;;;;9.18;2.90;;;;;;;28.60;27.41;98869.98;1720344;80;21504;-76
2022/05/12 12:14:17;;;;;;;9.43;2.95;;;;;;;28.41;28.34;98856.30;1701412;82;20995;-75
2022/05/12 12:17:06;;;;;;;19.75;3.27;;;;;;;28.39;28.60;98851.09;1723316;82;21043;-78
2022/05/12 12:19:46;;;;;;;13.95;3.17;;;;;;;28.50;29.07;98847.88;1727783;82;21104;-73
2022/05/12 12:22:45;;;;;;;18.85;3.52;;;;;;;28.62;28.40;98849.06;1721036;82;21059;-75
2022/05/12 12:25:40;;;;;;;9.88;3.20;;;;;;;28.68;28.16;98851.45;1739511;80;21405;-80
2022/05/12 12:28:37;;;;;;;;;;;;;;;28.64;27.96;98840.88;1767954;79;21107;-80